sensor_id;sensor_type;location;lat;lon;timestamp;P1;durP1;ratioP1;P2;durP2;ratioP2
7383;SDS011;3733;47.994;8.820;2023-03-26T00:01:27;13.23;;;3.27;;
7383;SDS011;3733;47.994;8.820;2023-03-26T00:03:57;6.63;;;3.20;;
7383;SDS011;3733;47.994;8.820;2023-03-26T00:06:24;8.70;;;3.37;;
7383;SDS011;3733;47.994;8.820;2023-03-26T00:08:54;7.90;;;3.27;;
7383;SDS011;3733;47.994;8.820;2023-03-26T00:11:25;9.53;;;2.70;;
7383;SDS011;3733;47.994;8.820;2023-03-26T00:13:52;5.63;;;2.47;;
7383;SDS011;3733;47.994;8.820;2023-03-26T00:16:21;13.03;;;3.20;;
7383;SDS011;3733;47.994;8.820;2023-03-26T00:18:47;5.10;;;2.30;;
7383;SDS011;3733;47.994;8.820;2023-03-26T00:21:15;12.73;;;2.40;;
7383;SDS011;3733;47.994;8.820;2023-03-26T00:23:44;15.87;;;3.23;;
7383;SDS011;3733;47.994;8.820;2023-03-26T00:26:10;10.03;;;2.87;;
7383;SDS011;3733;47.994;8.820;2023-03-26T00:28:37;10.60;;;3.20;;
7383;SDS011;3733;47.994;8.820;2023-03-26T00:31:05;9.73;;;2.80;;
7383;SDS011;3733;47.994;8.820;2023-03-26T00:33:32;5.70;;;2.40;;
7383;SDS011;3733;47.994;8.820;2023-03-26T00:36:02;12.70;;;3.10;;
7383;SDS011;3733;47.994;8.820;2023-03-26T00:38:29;9.47;;;2.70;;
7383;SDS011;3733;47.994;8.820;2023-03-26T00:40:58;12.53;;;3.30;;
7383;SDS011;3733;47.994;8.820;2023-03-26T00:43:30;6.30;;;2.93;;
7383;SDS011;3733;47.994;8.820;2023-03-26T00:45:57;10.40;;;2.80;;
7383;SDS011;3733;47.994;8.820;2023-03-26T00:48:23;6.00;;;2.77;;
7383;SDS011;3733;47.994;8.820;2023-03-26T00:50:53;6.67;;;2.90;;
7383;SDS011;3733;47.994;8.820;2023-03-26T00:53:20;9.60;;;3.53;;
7383;SDS011;3733;47.994;8.820;2023-03-26T00:55:46;4.53;;;2.20;;
7383;SDS011;3733;47.994;8.820;2023-03-26T00:58:12;5.47;;;2.30;;
7383;SDS011;3733;47.994;8.820;2023-03-26T01:00:46;8.03;;;2.60;;
7383;SDS011;3733;47.994;8.820;2023-03-26T01:03:15;9.00;;;3.10;;
7383;SDS011;3733;47.994;8.820;2023-03-26T01:05:49;9.30;;;3.80;;
7383;SDS011;3733;47.994;8.820;2023-03-26T01:14:25;9.03;;;2.93;;
7383;SDS011;3733;47.994;8.820;2023-03-26T01:16:56;6.17;;;3.63;;
7383;SDS011;3733;47.994;8.820;2023-03-26T01:22:09;6.07;;;2.80;;
7383;SDS011;3733;47.994;8.820;2023-03-26T01:24:40;9.97;;;2.57;;
7383;SDS011;3733;47.994;8.820;2023-03-26T01:27:08;5.40;;;2.57;;
7383;SDS011;3733;47.994;8.820;2023-03-26T01:29:52;6.17;;;2.90;;
7383;SDS011;3733;47.994;8.820;2023-03-26T01:32:27;12.77;;;4.70;;
7383;SDS011;3733;47.994;8.820;2023-03-26T01:35:14;15.93;;;3.67;;
7383;SDS011;3733;47.994;8.820;2023-03-26T01:40:39;7.77;;;2.90;;
7383;SDS011;3733;47.994;8.820;2023-03-26T01:43:54;6.90;;;3.30;;
7383;SDS011;3733;47.994;8.820;2023-03-26T01:46:00;5.60;;;2.60;;
7383;SDS011;3733;47.994;8.820;2023-03-26T01:48:32;12.37;;;2.90;;
7383;SDS011;3733;47.994;8.820;2023-03-26T01:51:04;9.17;;;3.57;;
7383;SDS011;3733;47.994;8.820;2023-03-26T01:53:32;6.03;;;2.77;;
7383;SDS011;3733;47.994;8.820;2023-03-26T01:58:51;6.40;;;3.20;;
7383;SDS011;3733;47.994;8.820;2023-03-26T02:01:40;2.90;;;2.50;;
7383;SDS011;3733;47.994;8.820;2023-03-26T02:04:33;11.40;;;3.10;;
7383;SDS011;3733;47.994;8.820;2023-03-26T02:07:04;15.90;;;3.77;;
7383;SDS011;3733;47.994;8.820;2023-03-26T02:09:48;6.60;;;2.63;;
7383;SDS011;3733;47.994;8.820;2023-03-26T02:12:19;9.80;;;3.20;;
7383;SDS011;3733;47.994;8.820;2023-03-26T02:14:46;7.50;;;3.10;;
7383;SDS011;3733;47.994;8.820;2023-03-26T02:17:12;8.27;;;3.00;;
7383;SDS011;3733;47.994;8.820;2023-03-26T02:19:38;8.00;;;2.73;;
7383;SDS011;3733;47.994;8.820;2023-03-26T02:22:06;8.47;;;3.10;;
7383;SDS011;3733;47.994;8.820;2023-03-26T02:24:35;6.10;;;2.60;;
7383;SDS011;3733;47.994;8.820;2023-03-26T02:27:02;4.13;;;2.90;;
7383;SDS011;3733;47.994;8.820;2023-03-26T02:29:31;4.20;;;2.40;;
7383;SDS011;3733;47.994;8.820;2023-03-26T02:32:04;7.70;;;2.50;;
7383;SDS011;3733;47.994;8.820;2023-03-26T02:34:31;3.20;;;2.00;;
7383;SDS011;3733;47.994;8.820;2023-03-26T02:36:57;11.53;;;1.97;;
7383;SDS011;3733;47.994;8.820;2023-03-26T02:39:22;7.37;;;2.40;;
7383;SDS011;3733;47.994;8.820;2023-03-26T02:41:49;6.63;;;2.30;;
7383;SDS011;3733;47.994;8.820;2023-03-26T02:44:14;5.83;;;2.50;;
7383;SDS011;3733;47.994;8.820;2023-03-26T02:46:40;11.87;;;2.50;;
7383;SDS011;3733;47.994;8.820;2023-03-26T02:49:05;10.10;;;2.40;;
7383;SDS011;3733;47.994;8.820;2023-03-26T02:51:32;4.43;;;2.07;;
7383;SDS011;3733;47.994;8.820;2023-03-26T02:54:01;3.97;;;2.30;;
7383;SDS011;3733;47.994;8.820;2023-03-26T02:56:27;4.23;;;2.40;;
7383;SDS011;3733;47.994;8.820;2023-03-26T02:58:53;5.40;;;2.10;;
7383;SDS011;3733;47.994;8.820;2023-03-26T03:01:18;6.97;;;2.23;;
7383;SDS011;3733;47.994;8.820;2023-03-26T03:03:44;6.00;;;2.37;;
7383;SDS011;3733;47.994;8.820;2023-03-26T03:06:13;6.03;;;2.17;;
7383;SDS011;3733;47.994;8.820;2023-03-26T03:08:42;3.93;;;1.90;;
7383;SDS011;3733;47.994;8.820;2023-03-26T03:11:16;13.30;;;2.60;;
7383;SDS011;3733;47.994;8.820;2023-03-26T03:13:46;4.60;;;2.30;;
7383;SDS011;3733;47.994;8.820;2023-03-26T03:16:11;8.63;;;2.70;;
7383;SDS011;3733;47.994;8.820;2023-03-26T03:18:37;6.77;;;2.67;;
7383;SDS011;3733;47.994;8.820;2023-03-26T03:21:03;5.00;;;2.40;;
7383;SDS011;3733;47.994;8.820;2023-03-26T03:23:30;7.93;;;2.83;;
7383;SDS011;3733;47.994;8.820;2023-03-26T03:25:56;7.17;;;2.30;;
7383;SDS011;3733;47.994;8.820;2023-03-26T03:28:23;9.10;;;2.80;;
7383;SDS011;3733;47.994;8.820;2023-03-26T03:30:49;8.10;;;2.30;;
7383;SDS011;3733;47.994;8.820;2023-03-26T03:33:20;3.03;;;1.90;;
7383;SDS011;3733;47.994;8.820;2023-03-26T03:35:46;8.73;;;2.30;;
7383;SDS011;3733;47.994;8.820;2023-03-26T03:38:13;8.70;;;2.20;;
7383;SDS011;3733;47.994;8.820;2023-03-26T03:40:43;3.43;;;2.00;;
7383;SDS011;3733;47.994;8.820;2023-03-26T03:43:09;5.60;;;3.00;;
7383;SDS011;3733;47.994;8.820;2023-03-26T03:45:34;3.80;;;1.90;;
7383;SDS011;3733;47.994;8.820;2023-03-26T03:48:00;8.53;;;2.27;;
7383;SDS011;3733;47.994;8.820;2023-03-26T03:50:25;11.53;;;2.70;;
7383;SDS011;3733;47.994;8.820;2023-03-26T03:52:51;4.07;;;2.10;;
7383;SDS011;3733;47.994;8.820;2023-03-26T03:55:17;2.87;;;2.10;;
7383;SDS011;3733;47.994;8.820;2023-03-26T03:57:43;5.73;;;1.90;;
7383;SDS011;3733;47.994;8.820;2023-03-26T04:00:09;5.00;;;2.63;;
7383;SDS011;3733;47.994;8.820;2023-03-26T04:02:36;4.77;;;2.07;;
7383;SDS011;3733;47.994;8.820;2023-03-26T04:05:02;6.10;;;1.87;;
7383;SDS011;3733;47.994;8.820;2023-03-26T04:07:30;3.57;;;1.73;;
7383;SDS011;3733;47.994;8.820;2023-03-26T04:09:57;7.90;;;2.10;;
7383;SDS011;3733;47.994;8.820;2023-03-26T04:12:25;5.17;;;1.90;;
7383;SDS011;3733;47.994;8.820;2023-03-26T04:14:52;3.50;;;1.90;;
7383;SDS011;3733;47.994;8.820;2023-03-26T04:17:17;6.50;;;2.33;;
7383;SDS011;3733;47.994;8.820;2023-03-26T04:19:46;6.53;;;2.17;;
7383;SDS011;3733;47.994;8.820;2023-03-26T04:22:11;4.57;;;2.13;;
7383;SDS011;3733;47.994;8.820;2023-03-26T04:24:37;7.23;;;2.30;;
7383;SDS011;3733;47.994;8.820;2023-03-26T04:27:06;5.33;;;2.37;;
7383;SDS011;3733;47.994;8.820;2023-03-26T04:29:37;3.60;;;2.50;;
7383;SDS011;3733;47.994;8.820;2023-03-26T04:32:07;12.13;;;2.80;;
7383;SDS011;3733;47.994;8.820;2023-03-26T04:34:46;10.43;;;3.30;;
7383;SDS011;3733;47.994;8.820;2023-03-26T04:37:28;7.33;;;2.50;;
7383;SDS011;3733;47.994;8.820;2023-03-26T04:40:04;8.33;;;2.23;;
7383;SDS011;3733;47.994;8.820;2023-03-26T04:42:35;6.80;;;2.63;;
7383;SDS011;3733;47.994;8.820;2023-03-26T04:45:05;8.47;;;2.80;;
7383;SDS011;3733;47.994;8.820;2023-03-26T04:47:32;6.43;;;2.10;;
7383;SDS011;3733;47.994;8.820;2023-03-26T04:50:01;4.47;;;2.53;;
7383;SDS011;3733;47.994;8.820;2023-03-26T04:52:28;9.00;;;2.60;;
7383;SDS011;3733;47.994;8.820;2023-03-26T04:54:53;7.73;;;2.40;;
7383;SDS011;3733;47.994;8.820;2023-03-26T05:00:12;9.63;;;2.80;;
7383;SDS011;3733;47.994;8.820;2023-03-26T05:02:43;6.27;;;2.10;;
7383;SDS011;3733;47.994;8.820;2023-03-26T05:05:09;12.23;;;2.60;;
7383;SDS011;3733;47.994;8.820;2023-03-26T05:07:35;5.90;;;2.20;;
7383;SDS011;3733;47.994;8.820;2023-03-26T05:10:02;6.07;;;2.40;;
7383;SDS011;3733;47.994;8.820;2023-03-26T05:12:28;8.00;;;2.47;;
7383;SDS011;3733;47.994;8.820;2023-03-26T05:14:54;3.57;;;2.47;;
7383;SDS011;3733;47.994;8.820;2023-03-26T05:17:19;6.00;;;2.30;;
7383;SDS011;3733;47.994;8.820;2023-03-26T05:19:47;6.00;;;2.80;;
7383;SDS011;3733;47.994;8.820;2023-03-26T05:22:13;4.60;;;1.83;;
7383;SDS011;3733;47.994;8.820;2023-03-26T05:24:38;3.60;;;2.00;;
7383;SDS011;3733;47.994;8.820;2023-03-26T05:27:04;5.30;;;2.10;;
7383;SDS011;3733;47.994;8.820;2023-03-26T05:29:30;6.83;;;2.80;;
7383;SDS011;3733;47.994;8.820;2023-03-26T05:31:56;9.40;;;2.33;;
7383;SDS011;3733;47.994;8.820;2023-03-26T05:34:21;8.53;;;2.60;;
7383;SDS011;3733;47.994;8.820;2023-03-26T05:36:50;8.83;;;2.17;;
7383;SDS011;3733;47.994;8.820;2023-03-26T05:39:16;4.17;;;2.80;;
7383;SDS011;3733;47.994;8.820;2023-03-26T05:41:42;7.73;;;3.00;;
7383;SDS011;3733;47.994;8.820;2023-03-26T05:44:07;8.27;;;3.23;;
7383;SDS011;3733;47.994;8.820;2023-03-26T05:46:33;9.80;;;2.90;;
7383;SDS011;3733;47.994;8.820;2023-03-26T05:48:58;4.10;;;2.20;;
7383;SDS011;3733;47.994;8.820;2023-03-26T05:51:24;6.50;;;2.63;;
7383;SDS011;3733;47.994;8.820;2023-03-26T05:53:50;6.43;;;3.00;;
7383;SDS011;3733;47.994;8.820;2023-03-26T05:56:16;5.40;;;2.90;;
7383;SDS011;3733;47.994;8.820;2023-03-26T05:58:41;4.13;;;2.30;;
7383;SDS011;3733;47.994;8.820;2023-03-26T06:01:08;8.43;;;2.60;;
7383;SDS011;3733;47.994;8.820;2023-03-26T06:03:40;7.47;;;3.37;;
7383;SDS011;3733;47.994;8.820;2023-03-26T06:06:17;6.67;;;2.97;;
7383;SDS011;3733;47.994;8.820;2023-03-26T06:08:44;9.10;;;2.67;;
7383;SDS011;3733;47.994;8.820;2023-03-26T06:11:13;7.47;;;3.83;;
7383;SDS011;3733;47.994;8.820;2023-03-26T06:13:40;17.67;;;3.47;;
7383;SDS011;3733;47.994;8.820;2023-03-26T06:16:06;12.30;;;3.20;;
7383;SDS011;3733;47.994;8.820;2023-03-26T06:18:33;10.83;;;3.80;;
7383;SDS011;3733;47.994;8.820;2023-03-26T06:20:59;8.23;;;3.03;;
7383;SDS011;3733;47.994;8.820;2023-03-26T06:23:24;13.33;;;4.63;;
7383;SDS011;3733;47.994;8.820;2023-03-26T06:25:50;13.60;;;3.30;;
7383;SDS011;3733;47.994;8.820;2023-03-26T06:28:16;6.33;;;3.20;;
7383;SDS011;3733;47.994;8.820;2023-03-26T06:30:41;8.63;;;3.43;;
7383;SDS011;3733;47.994;8.820;2023-03-26T06:33:07;6.20;;;3.63;;
7383;SDS011;3733;47.994;8.820;2023-03-26T06:35:33;8.27;;;4.23;;
7383;SDS011;3733;47.994;8.820;2023-03-26T06:37:58;9.37;;;3.73;;
7383;SDS011;3733;47.994;8.820;2023-03-26T06:40:24;6.97;;;3.60;;
7383;SDS011;3733;47.994;8.820;2023-03-26T06:42:50;14.73;;;3.67;;
7383;SDS011;3733;47.994;8.820;2023-03-26T06:45:16;11.90;;;3.63;;
7383;SDS011;3733;47.994;8.820;2023-03-26T06:47:41;9.37;;;3.87;;
7383;SDS011;3733;47.994;8.820;2023-03-26T06:50:08;7.57;;;4.10;;
7383;SDS011;3733;47.994;8.820;2023-03-26T06:52:35;7.93;;;3.83;;
7383;SDS011;3733;47.994;8.820;2023-03-26T06:55:01;10.50;;;5.47;;
7383;SDS011;3733;47.994;8.820;2023-03-26T06:57:27;9.33;;;4.87;;
7383;SDS011;3733;47.994;8.820;2023-03-26T06:59:52;7.30;;;4.70;;
7383;SDS011;3733;47.994;8.820;2023-03-26T07:02:18;11.50;;;4.80;;
7383;SDS011;3733;47.994;8.820;2023-03-26T07:04:43;9.97;;;3.50;;
7383;SDS011;3733;47.994;8.820;2023-03-26T07:07:09;6.57;;;3.40;;
7383;SDS011;3733;47.994;8.820;2023-03-26T07:09:35;5.40;;;3.00;;
7383;SDS011;3733;47.994;8.820;2023-03-26T07:12:00;7.77;;;3.53;;
7383;SDS011;3733;47.994;8.820;2023-03-26T07:14:26;5.77;;;3.50;;
7383;SDS011;3733;47.994;8.820;2023-03-26T07:16:54;5.80;;;3.10;;
7383;SDS011;3733;47.994;8.820;2023-03-26T07:19:22;6.87;;;2.83;;
7383;SDS011;3733;47.994;8.820;2023-03-26T07:21:47;8.27;;;2.80;;
7383;SDS011;3733;47.994;8.820;2023-03-26T07:24:13;23.07;;;6.93;;
7383;SDS011;3733;47.994;8.820;2023-03-26T07:34:21;15.23;;;4.87;;
7383;SDS011;3733;47.994;8.820;2023-03-26T07:36:52;12.80;;;8.47;;
7383;SDS011;3733;47.994;8.820;2023-03-26T07:47:35;8.97;;;5.10;;
7383;SDS011;3733;47.994;8.820;2023-03-26T07:50:01;14.00;;;6.30;;
7383;SDS011;3733;47.994;8.820;2023-03-26T07:52:28;13.90;;;6.63;;
7383;SDS011;3733;47.994;8.820;2023-03-26T07:54:54;11.93;;;5.10;;
7383;SDS011;3733;47.994;8.820;2023-03-26T07:57:32;10.90;;;5.30;;
7383;SDS011;3733;47.994;8.820;2023-03-26T08:00:32;10.07;;;4.70;;
7383;SDS011;3733;47.994;8.820;2023-03-26T08:06:17;7.00;;;3.80;;
7383;SDS011;3733;47.994;8.820;2023-03-26T08:09:01;5.00;;;3.43;;
7383;SDS011;3733;47.994;8.820;2023-03-26T08:11:53;9.00;;;4.10;;
7383;SDS011;3733;47.994;8.820;2023-03-26T08:22:44;6.33;;;2.77;;
7383;SDS011;3733;47.994;8.820;2023-03-26T08:30:37;4.37;;;3.60;;
7383;SDS011;3733;47.994;8.820;2023-03-26T08:35:36;5.23;;;3.00;;
7383;SDS011;3733;47.994;8.820;2023-03-26T08:38:09;4.20;;;3.27;;
7383;SDS011;3733;47.994;8.820;2023-03-26T09:00:32;3.53;;;3.17;;
7383;SDS011;3733;47.994;8.820;2023-03-26T09:14:27;5.10;;;3.27;;
7383;SDS011;3733;47.994;8.820;2023-03-26T09:19:58;9.80;;;3.40;;
7383;SDS011;3733;47.994;8.820;2023-03-26T10:08:33;5.50;;;2.50;;
7383;SDS011;3733;47.994;8.820;2023-03-26T10:20:30;2.83;;;1.83;;
7383;SDS011;3733;47.994;8.820;2023-03-26T10:22:55;2.17;;;1.70;;
7383;SDS011;3733;47.994;8.820;2023-03-26T10:25:48;3.80;;;2.30;;
7383;SDS011;3733;47.994;8.820;2023-03-26T10:28:54;7.97;;;3.43;;
7383;SDS011;3733;47.994;8.820;2023-03-26T10:34:18;4.83;;;2.17;;
7383;SDS011;3733;47.994;8.820;2023-03-26T10:36:56;2.50;;;1.83;;
7383;SDS011;3733;47.994;8.820;2023-03-26T10:55:58;3.97;;;1.93;;
7383;SDS011;3733;47.994;8.820;2023-03-26T10:58:31;1.80;;;1.53;;
7383;SDS011;3733;47.994;8.820;2023-03-26T11:01:00;1.83;;;1.70;;
7383;SDS011;3733;47.994;8.820;2023-03-26T11:03:53;2.97;;;1.67;;
7383;SDS011;3733;47.994;8.820;2023-03-26T11:11:52;1.83;;;1.50;;
7383;SDS011;3733;47.994;8.820;2023-03-26T11:14:34;5.30;;;1.60;;
7383;SDS011;3733;47.994;8.820;2023-03-26T11:33:29;4.97;;;1.73;;
7383;SDS011;3733;47.994;8.820;2023-03-26T11:36:04;3.50;;;1.50;;
7383;SDS011;3733;47.994;8.820;2023-03-26T11:38:36;3.17;;;1.53;;
7383;SDS011;3733;47.994;8.820;2023-03-26T11:41:15;2.80;;;1.70;;
7383;SDS011;3733;47.994;8.820;2023-03-26T11:43:46;2.97;;;1.90;;
7383;SDS011;3733;47.994;8.820;2023-03-26T11:46:17;1.83;;;1.50;;
7383;SDS011;3733;47.994;8.820;2023-03-26T11:48:47;3.20;;;1.80;;
7383;SDS011;3733;47.994;8.820;2023-03-26T11:51:28;2.37;;;1.50;;
7383;SDS011;3733;47.994;8.820;2023-03-26T11:53:57;3.67;;;2.07;;
7383;SDS011;3733;47.994;8.820;2023-03-26T11:59:00;2.53;;;1.57;;
7383;SDS011;3733;47.994;8.820;2023-03-26T12:01:40;2.27;;;1.90;;
7383;SDS011;3733;47.994;8.820;2023-03-26T12:04:12;4.10;;;1.50;;
7383;SDS011;3733;47.994;8.820;2023-03-26T12:06:49;5.40;;;1.63;;
7383;SDS011;3733;47.994;8.820;2023-03-26T12:09:20;3.90;;;1.47;;
7383;SDS011;3733;47.994;8.820;2023-03-26T12:11:47;3.93;;;1.80;;
7383;SDS011;3733;47.994;8.820;2023-03-26T12:14:18;2.80;;;1.43;;
7383;SDS011;3733;47.994;8.820;2023-03-26T12:17:00;3.73;;;1.30;;
7383;SDS011;3733;47.994;8.820;2023-03-26T12:19:40;2.40;;;1.30;;
7383;SDS011;3733;47.994;8.820;2023-03-26T12:28:15;3.73;;;1.50;;
7383;SDS011;3733;47.994;8.820;2023-03-26T12:33:20;5.43;;;1.60;;
7383;SDS011;3733;47.994;8.820;2023-03-26T12:35:50;2.40;;;1.50;;
7383;SDS011;3733;47.994;8.820;2023-03-26T12:38:21;11.00;;;4.93;;
7383;SDS011;3733;47.994;8.820;2023-03-26T12:41:07;1.50;;;1.40;;
7383;SDS011;3733;47.994;8.820;2023-03-26T12:43:41;2.10;;;1.23;;
7383;SDS011;3733;47.994;8.820;2023-03-26T12:46:25;2.90;;;1.77;;
7383;SDS011;3733;47.994;8.820;2023-03-26T12:48:54;3.43;;;1.50;;
7383;SDS011;3733;47.994;8.820;2023-03-26T12:56:35;5.30;;;1.30;;
7383;SDS011;3733;47.994;8.820;2023-03-26T13:02:06;4.30;;;1.40;;
7383;SDS011;3733;47.994;8.820;2023-03-26T13:05:03;2.50;;;1.20;;
7383;SDS011;3733;47.994;8.820;2023-03-26T13:16:03;2.00;;;1.23;;
7383;SDS011;3733;47.994;8.820;2023-03-26T13:21:53;2.33;;;1.70;;
7383;SDS011;3733;47.994;8.820;2023-03-26T13:24:36;2.47;;;1.10;;
7383;SDS011;3733;47.994;8.820;2023-03-26T13:45:53;4.30;;;1.73;;
7383;SDS011;3733;47.994;8.820;2023-03-26T13:48:41;1.73;;;1.60;;
7383;SDS011;3733;47.994;8.820;2023-03-26T13:51:22;2.27;;;1.17;;
7383;SDS011;3733;47.994;8.820;2023-03-26T13:54:06;1.33;;;1.20;;
7383;SDS011;3733;47.994;8.820;2023-03-26T13:56:35;2.53;;;1.70;;
7383;SDS011;3733;47.994;8.820;2023-03-26T13:59:07;4.23;;;1.50;;
7383;SDS011;3733;47.994;8.820;2023-03-26T14:02:14;4.00;;;1.50;;
7383;SDS011;3733;47.994;8.820;2023-03-26T14:04:51;3.03;;;1.80;;
7383;SDS011;3733;47.994;8.820;2023-03-26T14:08:03;2.33;;;1.20;;
7383;SDS011;3733;47.994;8.820;2023-03-26T14:10:16;1.97;;;1.23;;
7383;SDS011;3733;47.994;8.820;2023-03-26T14:12:48;2.80;;;1.60;;
7383;SDS011;3733;47.994;8.820;2023-03-26T14:15:40;3.37;;;1.50;;
7383;SDS011;3733;47.994;8.820;2023-03-26T14:30:03;5.80;;;1.70;;
7383;SDS011;3733;47.994;8.820;2023-03-26T14:44:04;2.77;;;1.70;;
7383;SDS011;3733;47.994;8.820;2023-03-26T14:47:12;3.43;;;1.50;;
7383;SDS011;3733;47.994;8.820;2023-03-26T14:58:49;3.53;;;1.40;;
7383;SDS011;3733;47.994;8.820;2023-03-26T15:50:18;1.30;;;1.20;;
7383;SDS011;3733;47.994;8.820;2023-03-26T15:52:59;1.43;;;1.33;;
7383;SDS011;3733;47.994;8.820;2023-03-26T15:55:32;0.80;;;0.80;;
7383;SDS011;3733;47.994;8.820;2023-03-26T16:00:40;0.93;;;0.93;;
7383;SDS011;3733;47.994;8.820;2023-03-26T16:06:37;1.10;;;1.00;;
7383;SDS011;3733;47.994;8.820;2023-03-26T16:17:12;1.63;;;1.20;;
7383;SDS011;3733;47.994;8.820;2023-03-26T16:22:36;1.37;;;1.00;;
7383;SDS011;3733;47.994;8.820;2023-03-26T16:27:47;1.07;;;0.97;;
7383;SDS011;3733;47.994;8.820;2023-03-26T16:33:49;1.40;;;1.00;;
7383;SDS011;3733;47.994;8.820;2023-03-26T16:36:52;1.77;;;1.13;;
7383;SDS011;3733;47.994;8.820;2023-03-26T16:39:22;1.70;;;1.60;;
7383;SDS011;3733;47.994;8.820;2023-03-26T16:42:25;1.63;;;1.30;;
7383;SDS011;3733;47.994;8.820;2023-03-26T16:45:04;1.80;;;1.17;;
7383;SDS011;3733;47.994;8.820;2023-03-26T16:47:44;0.90;;;0.90;;
7383;SDS011;3733;47.994;8.820;2023-03-26T16:55:58;1.63;;;1.23;;
7383;SDS011;3733;47.994;8.820;2023-03-26T17:01:10;1.10;;;1.07;;
7383;SDS011;3733;47.994;8.820;2023-03-26T17:17:09;1.33;;;1.10;;
7383;SDS011;3733;47.994;8.820;2023-03-26T17:23:04;1.20;;;1.10;;
7383;SDS011;3733;47.994;8.820;2023-03-26T17:31:34;0.90;;;0.90;;
7383;SDS011;3733;47.994;8.820;2023-03-26T17:37:10;1.13;;;1.07;;
7383;SDS011;3733;47.994;8.820;2023-03-26T17:47:49;2.80;;;2.03;;
7383;SDS011;3733;47.994;8.820;2023-03-26T17:50:56;8.17;;;4.40;;
7383;SDS011;3733;47.994;8.820;2023-03-26T17:53:30;10.43;;;5.73;;
7383;SDS011;3733;47.994;8.820;2023-03-26T17:55:59;2.80;;;2.20;;
7383;SDS011;3733;47.994;8.820;2023-03-26T17:58:34;3.10;;;2.27;;
7383;SDS011;3733;47.994;8.820;2023-03-26T18:01:05;2.73;;;2.20;;
7383;SDS011;3733;47.994;8.820;2023-03-26T18:03:48;2.20;;;1.70;;
7383;SDS011;3733;47.994;8.820;2023-03-26T18:06:29;2.90;;;2.10;;
7383;SDS011;3733;47.994;8.820;2023-03-26T18:09:17;1.60;;;1.50;;
7383;SDS011;3733;47.994;8.820;2023-03-26T18:16:59;3.70;;;2.97;;
7383;SDS011;3733;47.994;8.820;2023-03-26T18:19:25;2.07;;;1.97;;
7383;SDS011;3733;47.994;8.820;2023-03-26T18:21:53;2.80;;;1.43;;
7383;SDS011;3733;47.994;8.820;2023-03-26T18:24:29;3.40;;;1.50;;
7383;SDS011;3733;47.994;8.820;2023-03-26T18:27:02;2.00;;;1.90;;
7383;SDS011;3733;47.994;8.820;2023-03-26T18:29:35;1.70;;;1.60;;
7383;SDS011;3733;47.994;8.820;2023-03-26T18:34:33;1.70;;;1.57;;
7383;SDS011;3733;47.994;8.820;2023-03-26T18:37:20;1.67;;;1.40;;
7383;SDS011;3733;47.994;8.820;2023-03-26T18:40:02;1.50;;;1.40;;
7383;SDS011;3733;47.994;8.820;2023-03-26T18:42:40;3.27;;;2.50;;
7383;SDS011;3733;47.994;8.820;2023-03-26T18:45:19;2.10;;;1.80;;
7383;SDS011;3733;47.994;8.820;2023-03-26T18:48:08;1.23;;;1.13;;
7383;SDS011;3733;47.994;8.820;2023-03-26T18:50:36;2.03;;;1.50;;
7383;SDS011;3733;47.994;8.820;2023-03-26T18:53:05;1.17;;;1.07;;
7383;SDS011;3733;47.994;8.820;2023-03-26T18:55:37;1.20;;;1.20;;
7383;SDS011;3733;47.994;8.820;2023-03-26T19:01:04;16.00;;;8.40;;
7383;SDS011;3733;47.994;8.820;2023-03-26T19:03:34;2.13;;;1.23;;
7383;SDS011;3733;47.994;8.820;2023-03-26T19:06:08;1.63;;;1.00;;
7383;SDS011;3733;47.994;8.820;2023-03-26T19:08:37;1.90;;;1.20;;
7383;SDS011;3733;47.994;8.820;2023-03-26T19:11:08;1.13;;;1.03;;
7383;SDS011;3733;47.994;8.820;2023-03-26T19:13:36;1.67;;;1.57;;
7383;SDS011;3733;47.994;8.820;2023-03-26T19:16:11;5.87;;;1.57;;
7383;SDS011;3733;47.994;8.820;2023-03-26T19:18:50;1.43;;;1.30;;
7383;SDS011;3733;47.994;8.820;2023-03-26T19:21:17;1.53;;;1.43;;
7383;SDS011;3733;47.994;8.820;2023-03-26T19:23:47;1.50;;;1.40;;
7383;SDS011;3733;47.994;8.820;2023-03-26T19:26:13;2.40;;;1.30;;
7383;SDS011;3733;47.994;8.820;2023-03-26T19:28:43;1.63;;;1.53;;
7383;SDS011;3733;47.994;8.820;2023-03-26T19:33:41;2.70;;;1.40;;
7383;SDS011;3733;47.994;8.820;2023-03-26T19:38:49;1.90;;;1.60;;
7383;SDS011;3733;47.994;8.820;2023-03-26T19:41:29;1.97;;;1.70;;
7383;SDS011;3733;47.994;8.820;2023-03-26T19:44:01;7.50;;;2.10;;
7383;SDS011;3733;47.994;8.820;2023-03-26T19:46:31;3.33;;;1.87;;
7383;SDS011;3733;47.994;8.820;2023-03-26T19:48:58;1.37;;;1.27;;
7383;SDS011;3733;47.994;8.820;2023-03-26T19:51:31;2.57;;;2.00;;
7383;SDS011;3733;47.994;8.820;2023-03-26T19:54:00;2.17;;;1.97;;
7383;SDS011;3733;47.994;8.820;2023-03-26T19:56:28;4.27;;;2.97;;
7383;SDS011;3733;47.994;8.820;2023-03-26T19:58:54;3.20;;;2.20;;
7383;SDS011;3733;47.994;8.820;2023-03-26T20:01:24;6.40;;;2.43;;
7383;SDS011;3733;47.994;8.820;2023-03-26T20:03:55;2.70;;;2.30;;
7383;SDS011;3733;47.994;8.820;2023-03-26T20:06:24;3.20;;;1.77;;
7383;SDS011;3733;47.994;8.820;2023-03-26T20:08:53;2.77;;;2.07;;
7383;SDS011;3733;47.994;8.820;2023-03-26T20:11:20;1.53;;;1.33;;
7383;SDS011;3733;47.994;8.820;2023-03-26T20:13:47;1.50;;;1.37;;
7383;SDS011;3733;47.994;8.820;2023-03-26T20:16:17;3.43;;;1.73;;
7383;SDS011;3733;47.994;8.820;2023-03-26T20:18:49;1.50;;;1.40;;
7383;SDS011;3733;47.994;8.820;2023-03-26T20:21:15;1.70;;;1.60;;
7383;SDS011;3733;47.994;8.820;2023-03-26T20:23:41;2.63;;;1.87;;
7383;SDS011;3733;47.994;8.820;2023-03-26T20:26:11;3.10;;;2.47;;
7383;SDS011;3733;47.994;8.820;2023-03-26T20:28:39;2.40;;;2.07;;
7383;SDS011;3733;47.994;8.820;2023-03-26T20:31:09;2.87;;;1.97;;
7383;SDS011;3733;47.994;8.820;2023-03-26T20:33:38;2.93;;;1.83;;
7383;SDS011;3733;47.994;8.820;2023-03-26T20:36:04;2.10;;;1.83;;
7383;SDS011;3733;47.994;8.820;2023-03-26T20:38:34;3.90;;;2.63;;
7383;SDS011;3733;47.994;8.820;2023-03-26T20:41:00;2.87;;;1.80;;
7383;SDS011;3733;47.994;8.820;2023-03-26T20:43:26;6.50;;;2.27;;
7383;SDS011;3733;47.994;8.820;2023-03-26T20:45:54;2.10;;;1.80;;
7383;SDS011;3733;47.994;8.820;2023-03-26T20:48:21;2.10;;;1.63;;
7383;SDS011;3733;47.994;8.820;2023-03-26T20:50:47;3.37;;;2.00;;
7383;SDS011;3733;47.994;8.820;2023-03-26T20:53:13;6.40;;;1.80;;
7383;SDS011;3733;47.994;8.820;2023-03-26T20:55:43;1.53;;;1.40;;
7383;SDS011;3733;47.994;8.820;2023-03-26T20:58:13;2.07;;;1.73;;
7383;SDS011;3733;47.994;8.820;2023-03-26T21:00:41;2.40;;;1.57;;
7383;SDS011;3733;47.994;8.820;2023-03-26T21:03:11;2.80;;;1.80;;
7383;SDS011;3733;47.994;8.820;2023-03-26T21:05:38;1.93;;;1.67;;
7383;SDS011;3733;47.994;8.820;2023-03-26T21:08:05;2.80;;;2.27;;
7383;SDS011;3733;47.994;8.820;2023-03-26T21:10:31;2.00;;;1.90;;
7383;SDS011;3733;47.994;8.820;2023-03-26T21:13:00;2.10;;;1.63;;
7383;SDS011;3733;47.994;8.820;2023-03-26T21:15:41;2.03;;;1.43;;
7383;SDS011;3733;47.994;8.820;2023-03-26T21:18:07;1.80;;;1.57;;
7383;SDS011;3733;47.994;8.820;2023-03-26T21:20:33;5.20;;;2.03;;
7383;SDS011;3733;47.994;8.820;2023-03-26T21:30:51;2.40;;;1.97;;
7383;SDS011;3733;47.994;8.820;2023-03-26T21:33:16;4.40;;;2.00;;
7383;SDS011;3733;47.994;8.820;2023-03-26T21:35:42;2.20;;;2.00;;
7383;SDS011;3733;47.994;8.820;2023-03-26T21:38:09;3.00;;;2.27;;
7383;SDS011;3733;47.994;8.820;2023-03-26T21:40:35;4.63;;;2.20;;
7383;SDS011;3733;47.994;8.820;2023-03-26T21:43:01;2.70;;;1.80;;
7383;SDS011;3733;47.994;8.820;2023-03-26T21:45:28;2.47;;;2.20;;
7383;SDS011;3733;47.994;8.820;2023-03-26T21:47:54;6.73;;;2.70;;
7383;SDS011;3733;47.994;8.820;2023-03-26T21:50:20;8.53;;;4.23;;
7383;SDS011;3733;47.994;8.820;2023-03-26T21:52:47;2.50;;;2.17;;
7383;SDS011;3733;47.994;8.820;2023-03-26T21:55:15;2.70;;;1.77;;
7383;SDS011;3733;47.994;8.820;2023-03-26T21:57:47;2.63;;;2.20;;
7383;SDS011;3733;47.994;8.820;2023-03-26T22:00:22;2.00;;;1.90;;
7383;SDS011;3733;47.994;8.820;2023-03-26T22:05:43;3.23;;;2.03;;
7383;SDS011;3733;47.994;8.820;2023-03-26T22:08:19;2.00;;;1.70;;
7383;SDS011;3733;47.994;8.820;2023-03-26T22:10:45;1.60;;;1.50;;
7383;SDS011;3733;47.994;8.820;2023-03-26T22:13:11;2.30;;;1.70;;
7383;SDS011;3733;47.994;8.820;2023-03-26T22:15:37;5.90;;;1.90;;
7383;SDS011;3733;47.994;8.820;2023-03-26T22:18:03;2.47;;;1.90;;
7383;SDS011;3733;47.994;8.820;2023-03-26T22:20:29;2.40;;;1.77;;
7383;SDS011;3733;47.994;8.820;2023-03-26T22:22:55;5.30;;;1.40;;
7383;SDS011;3733;47.994;8.820;2023-03-26T22:25:21;2.10;;;1.40;;